KPWG

Mc Gregor Executive Airport

Waco, Texas, USA
METAR KPWG 151456Z AUTO 19015G21KT 10SM SCT023 29/22 A3001 RMK AO2 SLP163 T02940222 50011
Observed Flight Rules
Aug-15 @ 14:56 UTC (5 minutes ago) Visual Flight Rules
Wind Visibility Clouds
190° at 15 knots
 Gusting to 21 knots
10 miles
  • Scattered at 2,300' AGL
Temperatures Readings
Current 29°C / 84°F
Dewpoint 22°C / 72°F
Humidity 66%
Altimeter 30.01" Hg
Pressure 1016.3 hPa
Elevation 180
METAR KPWG 151456Z AUTO 19015G21KT 10SM SCT023 29/22 A3001 RMK AO2 SLP163 T02940222 50011
Observed Flight Rules
Aug-15 @ 14:56 UTC
(5 minutes ago)
VFR
Wind Visibility
190° at 15 knots
 Gusting to 21 knots
10 miles
Clouds
  • Scattered at 2,300' AGL
Temperature Dewpoint
29°C / 84°F 22°C / 72°F
Humidity Altimeter Pressure
66% 30.01" Hg 1016.3 hPa